Cliffdell, Washington
Current Conditions -  °F | °C
As of 2:53 PM on Thursday 27 Nov 2014 (Local Time) from KYKM Reporting Station
Clear Clear  
Wind Chill: 61°   Ceiling: Unl
Heat Index: 61°   Visibility: 10mi
Dew Point: 44°   Wind: 24mph
Humidity: 54%   Direction: 190°S
Pressure: 29.76"   Gusts: 35mph
Location:  46.6628°N, 121.193°W
Report Text: KYKM 272253Z 19021G30KT 10SM CLR 16/07 A2976 RMK AO2 PK WND 17031/2203 SLP080 T01610067
Loading
Personal Weather Stations






























Interactive Weather Map New forecast layout! Learn more

10-Day Weather Forecast

Advertisements
Track Severe Weather on mobile